createdAt,value
2018-03-30T00:02:26.755Z,8.53
2018-03-30T00:04:54.359Z,9.37
2018-03-30T00:07:21.950Z,9.67
2018-03-30T00:10:00.149Z,11.23
2018-03-30T00:12:28.023Z,9.63
2018-03-30T00:14:55.583Z,9.33
2018-03-30T00:17:23.182Z,9.13
2018-03-30T00:19:50.770Z,10.10
2018-03-30T00:22:18.338Z,8.50
2018-03-30T00:24:45.915Z,8.73
2018-03-30T00:27:15.200Z,10.43
2018-03-30T00:29:42.859Z,9.00
2018-03-30T00:32:10.421Z,10.43
2018-03-30T00:34:38.092Z,10.10
2018-03-30T00:37:05.690Z,10.10
2018-03-30T00:39:33.284Z,9.43
2018-03-30T00:42:01.684Z,9.03
2018-03-30T00:44:29.348Z,11.30
2018-03-30T00:46:56.955Z,11.17
2018-03-30T00:49:25.436Z,10.30
2018-03-30T00:51:53.791Z,10.20
2018-03-30T00:54:21.399Z,10.97
2018-03-30T00:56:49.843Z,11.07
2018-03-30T00:59:17.471Z,10.63
2018-03-30T01:01:45.832Z,13.53
2018-03-30T01:04:13.391Z,11.03
2018-03-30T01:06:40.975Z,12.17
2018-03-30T01:09:08.537Z,12.87
2018-03-30T01:11:36.108Z,11.43
2018-03-30T01:14:03.721Z,11.90
2018-03-30T01:16:32.263Z,9.40
2018-03-30T01:18:59.920Z,12.80
2018-03-30T01:21:27.499Z,12.07
2018-03-30T01:23:55.076Z,11.83
2018-03-30T01:26:22.688Z,13.13
2018-03-30T01:28:50.253Z,10.70
2018-03-30T01:31:18.581Z,11.27
2018-03-30T01:33:46.166Z,12.53
2018-03-30T01:36:13.736Z,12.40
2018-03-30T01:38:41.361Z,12.40
2018-03-30T01:41:08.951Z,14.77
2018-03-30T01:43:38.132Z,11.80
2018-03-30T01:46:05.767Z,13.30
2018-03-30T01:48:34.021Z,12.17
2018-03-30T01:51:02.373Z,13.60
2018-03-30T01:53:29.931Z,14.50
2018-03-30T01:55:57.516Z,13.70
2018-03-30T01:58:25.104Z,13.13
2018-03-30T02:00:52.668Z,11.90
2018-03-30T02:03:20.830Z,11.37
2018-03-30T02:05:48.879Z,10.13
2018-03-30T02:08:17.242Z,16.70
2018-03-30T02:10:44.830Z,16.60
2018-03-30T02:13:12.475Z,44.60
2018-03-30T02:15:40.116Z,31.40
2018-03-30T02:18:07.764Z,22.13
2018-03-30T02:20:36.220Z,20.10
2018-03-30T02:23:03.839Z,18.87
2018-03-30T02:25:32.199Z,17.40
2018-03-30T02:27:59.790Z,15.73
2018-03-30T02:30:27.383Z,15.67
2018-03-30T02:32:54.989Z,14.87
2018-03-30T02:35:22.610Z,16.43
2018-03-30T02:37:50.961Z,18.20
2018-03-30T02:40:18.600Z,16.50
2018-03-30T02:42:46.189Z,17.27
2018-03-30T02:45:13.756Z,16.17
2018-03-30T02:47:41.334Z,16.10
2018-03-30T02:50:08.943Z,14.87
2018-03-30T02:52:36.557Z,15.47
2018-03-30T02:55:04.910Z,14.57
2018-03-30T02:57:32.500Z,15.83
2018-03-30T03:00:00.860Z,15.57
2018-03-30T03:02:28.452Z,15.93
2018-03-30T03:04:56.913Z,17.37
2018-03-30T03:07:24.488Z,16.07
2018-03-30T03:09:52.103Z,16.37
2018-03-30T03:12:20.442Z,19.27
2018-03-30T03:14:48.036Z,18.73
2018-03-30T03:17:16.372Z,16.87
2018-03-30T03:19:44.706Z,17.10
2018-03-30T03:22:12.297Z,16.03
2018-03-30T03:24:40.776Z,16.93
2018-03-30T03:27:08.351Z,20.67
2018-03-30T03:29:35.943Z,16.20
2018-03-30T03:32:03.517Z,17.30
2018-03-30T03:34:31.090Z,17.60
2018-03-30T03:36:58.740Z,23.20
2018-03-30T03:39:26.328Z,17.27
2018-03-30T03:41:53.905Z,16.93
2018-03-30T03:44:21.476Z,18.33
2018-03-30T03:46:49.054Z,18.13
2018-03-30T03:49:16.660Z,17.70
2018-03-30T03:51:44.218Z,17.07
2018-03-30T03:54:12.603Z,18.90
2018-03-30T03:56:40.963Z,18.47
2018-03-30T03:59:08.575Z,16.90
2018-03-30T04:01:36.910Z,16.77
2018-03-30T04:04:04.486Z,19.50
2018-03-30T04:06:32.063Z,18.77
2018-03-30T04:08:59.632Z,17.30
2018-03-30T04:11:27.281Z,17.03
2018-03-30T04:13:54.907Z,19.63
2018-03-30T04:16:22.502Z,21.20
2018-03-30T04:18:50.830Z,20.03
2018-03-30T04:21:18.395Z,21.90
2018-03-30T04:23:45.987Z,22.87
2018-03-30T04:26:13.559Z,18.57
2018-03-30T04:28:41.163Z,24.80
2018-03-30T04:31:09.529Z,20.23
2018-03-30T04:33:37.118Z,20.30
2018-03-30T04:36:04.737Z,20.20
2018-03-30T04:38:32.316Z,23.07
2018-03-30T04:40:59.922Z,18.60
2018-03-30T04:43:27.511Z,19.40
2018-03-30T04:45:55.876Z,20.33
2018-03-30T04:48:23.460Z,20.90
2018-03-30T04:50:51.058Z,23.47
2018-03-30T04:53:19.483Z,19.77
2018-03-30T04:55:47.141Z,20.23
2018-03-30T04:58:14.722Z,19.07
2018-03-30T05:00:42.327Z,19.10
2018-03-30T05:03:09.928Z,19.10
2018-03-30T05:05:37.549Z,20.37
2018-03-30T05:08:05.131Z,18.00
2018-03-30T05:10:32.765Z,18.20
2018-03-30T05:13:01.179Z,21.83
2018-03-30T05:15:28.805Z,20.33
2018-03-30T05:17:56.424Z,18.27
2018-03-30T05:20:24.108Z,22.10
2018-03-30T05:22:51.704Z,20.20
2018-03-30T05:25:19.309Z,19.80
2018-03-30T05:27:46.940Z,21.70
2018-03-30T05:30:14.611Z,22.40
2018-03-30T05:32:42.265Z,23.10
2018-03-30T05:35:09.910Z,23.73
2018-03-30T05:37:38.567Z,22.47
2018-03-30T05:40:06.284Z,30.13
2018-03-30T05:42:33.855Z,26.83
2018-03-30T05:45:02.236Z,23.60
2018-03-30T05:47:29.925Z,23.00
2018-03-30T05:49:58.380Z,29.90
2018-03-30T05:52:26.087Z,25.93
2018-03-30T05:54:54.491Z,30.03
2018-03-30T05:57:22.096Z,32.67
2018-03-30T05:59:49.722Z,36.27
2018-03-30T06:02:18.127Z,33.60
2018-03-30T06:04:45.752Z,37.83
2018-03-30T06:07:13.540Z,47.50
2018-03-30T06:09:41.182Z,44.10
2018-03-30T06:12:08.780Z,47.17
2018-03-30T06:14:36.424Z,44.40
2018-03-30T06:17:04.104Z,44.27
2018-03-30T06:19:31.790Z,41.70
2018-03-30T06:21:59.391Z,41.03
2018-03-30T06:24:26.988Z,38.00
2018-03-30T06:26:55.358Z,45.63
2018-03-30T06:29:23.473Z,44.30
2018-03-30T06:31:51.155Z,52.90
2018-03-30T06:34:18.776Z,59.90
2018-03-30T06:36:46.372Z,84.37
2018-03-30T06:39:13.964Z,76.20
2018-03-30T06:41:41.574Z,51.57
2018-03-30T06:44:10.834Z,79.20
2018-03-30T06:46:39.499Z,82.27
2018-03-30T06:49:08.158Z,84.43
2018-03-30T06:51:35.772Z,40.70
2018-03-30T06:54:03.362Z,40.07
2018-03-30T06:56:30.990Z,36.53
2018-03-30T06:58:58.647Z,34.97
2018-03-30T07:01:26.330Z,44.37
2018-03-30T07:03:53.946Z,41.27
2018-03-30T07:06:21.631Z,38.90
2018-03-30T07:08:49.222Z,37.90
2018-03-30T07:11:17.659Z,31.07
2018-03-30T07:13:45.251Z,26.50
2018-03-30T07:16:12.903Z,28.87
2018-03-30T07:18:40.547Z,27.43
2018-03-30T07:21:08.216Z,27.57
2018-03-30T07:23:35.787Z,34.73
2018-03-30T07:26:03.491Z,34.67
2018-03-30T07:28:31.075Z,32.53
2018-03-30T07:31:00.302Z,31.10
2018-03-30T07:33:27.907Z,32.43
2018-03-30T07:35:57.123Z,30.80
2018-03-30T07:38:24.711Z,25.63
2018-03-30T07:40:52.393Z,24.57
2018-03-30T07:43:20.019Z,44.10
2018-03-30T07:45:47.620Z,33.80
2018-03-30T07:48:15.215Z,24.30
2018-03-30T07:50:42.889Z,17.97
2018-03-30T07:53:10.487Z,24.60
2018-03-30T07:55:38.841Z,20.93
2018-03-30T07:58:06.965Z,19.77
2018-03-30T08:00:35.350Z,17.70
2018-03-30T08:03:02.949Z,16.30
2018-03-30T08:05:30.601Z,19.03
2018-03-30T08:07:58.227Z,17.00
2018-03-30T08:11:46.740Z,19.60
2018-03-30T08:14:16.309Z,16.27
2018-03-30T08:16:44.666Z,14.07
2018-03-30T08:19:12.811Z,13.70
2018-03-30T08:21:40.446Z,16.60
2018-03-30T08:24:08.831Z,12.43
2018-03-30T08:26:38.073Z,14.27
2018-03-30T08:29:05.992Z,13.37
2018-03-30T08:31:34.460Z,12.60
2018-03-30T08:34:02.784Z,13.43
2018-03-30T08:36:30.384Z,12.67
2018-03-30T08:38:57.976Z,13.83
2018-03-30T08:41:26.141Z,12.03
2018-03-30T08:43:53.742Z,11.57
2018-03-30T08:46:21.328Z,12.20
2018-03-30T08:48:48.898Z,11.27
2018-03-30T08:51:16.490Z,14.13
2018-03-30T08:53:44.082Z,10.87
2018-03-30T08:56:12.687Z,10.17
2018-03-30T08:58:40.255Z,12.27
2018-03-30T09:01:08.516Z,11.17
2018-03-30T09:03:36.119Z,10.17
2018-03-30T09:06:04.499Z,10.00
2018-03-30T09:08:32.943Z,12.03
2018-03-30T09:11:01.339Z,10.97
2018-03-30T09:13:29.836Z,11.60
2018-03-30T09:15:57.516Z,11.20
2018-03-30T09:18:25.947Z,10.87
2018-03-30T09:20:53.592Z,10.20
2018-03-30T09:23:21.553Z,11.07
2018-03-30T09:25:50.251Z,8.63
2018-03-30T09:28:17.946Z,9.87
2018-03-30T09:30:46.790Z,9.80
2018-03-30T09:33:20.992Z,12.70
2018-03-30T09:35:48.658Z,10.23
2018-03-30T09:38:17.116Z,9.90
2018-03-30T09:40:45.762Z,11.90
2018-03-30T09:43:13.582Z,9.47
2018-03-30T09:45:42.266Z,9.80
2018-03-30T09:48:10.788Z,9.70
2018-03-30T09:50:39.431Z,9.87
2018-03-30T09:53:07.059Z,10.80
2018-03-30T09:55:34.660Z,10.07
2018-03-30T09:58:02.272Z,8.93
2018-03-30T10:00:29.840Z,9.90
2018-03-30T10:02:57.433Z,9.00
2018-03-30T10:05:25.794Z,9.50
2018-03-30T10:07:53.423Z,8.30
2018-03-30T10:10:21.039Z,11.13
2018-03-30T10:12:49.300Z,10.07
2018-03-30T10:15:16.929Z,9.80
2018-03-30T10:17:44.600Z,7.93
2018-03-30T10:20:12.988Z,7.70
2018-03-30T10:22:41.417Z,8.50
2018-03-30T10:25:09.022Z,10.07
2018-03-30T10:27:36.660Z,11.53
2018-03-30T10:30:04.275Z,9.33
2018-03-30T10:32:32.639Z,8.60
2018-03-30T10:35:00.212Z,9.03
2018-03-30T10:37:27.864Z,8.10
2018-03-30T10:39:56.124Z,8.60
2018-03-30T10:42:24.488Z,6.47
2018-03-30T10:44:52.057Z,7.47
2018-03-30T10:47:19.689Z,8.97
2018-03-30T10:49:47.320Z,9.57
2018-03-30T10:52:14.978Z,8.57
2018-03-30T10:54:42.592Z,8.17
2018-03-30T10:57:10.954Z,8.13
2018-03-30T10:59:39.719Z,9.03
2018-03-30T11:02:07.570Z,9.50
2018-03-30T11:04:35.155Z,8.73
2018-03-30T11:07:02.858Z,8.00
2018-03-30T11:09:31.280Z,8.37
2018-03-30T11:11:59.000Z,8.73
2018-03-30T11:14:26.620Z,8.93
2018-03-30T11:16:54.207Z,8.57
2018-03-30T11:19:21.814Z,7.10
2018-03-30T11:21:49.400Z,7.17
2018-03-30T11:24:16.979Z,7.20
2018-03-30T11:26:44.593Z,8.53
2018-03-30T11:29:13.044Z,6.90
2018-03-30T11:31:40.632Z,7.17
2018-03-30T11:34:08.193Z,7.83
2018-03-30T11:36:35.865Z,7.50
2018-03-30T11:39:03.455Z,7.90
2018-03-30T11:41:31.060Z,7.63
2018-03-30T11:43:59.451Z,7.80
2018-03-30T11:46:27.837Z,8.77
2018-03-30T11:48:56.269Z,8.70
2018-03-30T11:51:23.890Z,7.30
2018-03-30T11:53:51.492Z,7.30
2018-03-30T11:56:19.083Z,9.07
2018-03-30T11:58:46.729Z,7.17
2018-03-30T12:01:15.082Z,7.83
2018-03-30T12:03:42.697Z,7.30
2018-03-30T12:06:11.075Z,6.63
2018-03-30T12:08:39.590Z,7.20
2018-03-30T12:11:07.199Z,6.47
2018-03-30T12:13:34.799Z,5.97
2018-03-30T12:16:02.478Z,6.30
2018-03-30T12:18:30.920Z,6.60
2018-03-30T12:20:58.517Z,7.83
2018-03-30T12:23:26.236Z,5.53
2018-03-30T12:25:56.766Z,7.47
2018-03-30T12:28:25.495Z,6.10
2018-03-30T12:30:53.065Z,5.37
2018-03-30T12:33:20.659Z,7.50
2018-03-30T12:35:48.998Z,7.63
2018-03-30T12:38:16.599Z,7.23
2018-03-30T12:40:44.964Z,16.03
2018-03-30T12:43:12.553Z,7.60
2018-03-30T12:45:41.255Z,7.17
2018-03-30T12:48:08.875Z,7.23
2018-03-30T12:50:36.478Z,6.73
2018-03-30T12:53:04.128Z,7.43
2018-03-30T12:55:31.731Z,6.93
2018-03-30T12:57:59.367Z,7.00
2018-03-30T13:00:26.946Z,7.07
2018-03-30T13:02:54.533Z,8.20
2018-03-30T13:05:22.167Z,6.03
2018-03-30T13:07:50.619Z,7.23
2018-03-30T13:10:18.268Z,6.40
2018-03-30T13:12:45.872Z,6.77
2018-03-30T13:15:14.109Z,6.37
2018-03-30T13:17:41.695Z,8.93
2018-03-30T13:20:09.323Z,6.37
2018-03-30T13:22:36.914Z,7.37
2018-03-30T13:25:05.315Z,6.67
2018-03-30T13:27:32.873Z,7.57
2018-03-30T13:30:01.299Z,6.13
2018-03-30T13:32:28.900Z,8.90
2018-03-30T13:34:56.494Z,6.90
2018-03-30T13:37:24.118Z,6.93
2018-03-30T13:39:51.768Z,8.13
2018-03-30T13:42:19.381Z,7.40
2018-03-30T13:44:46.975Z,7.67
2018-03-30T13:47:14.636Z,8.67
2018-03-30T13:49:42.292Z,8.30
2018-03-30T13:52:11.660Z,9.10
2018-03-30T13:54:40.088Z,8.90
2018-03-30T13:57:09.034Z,7.63
2018-03-30T13:59:39.480Z,8.20
2018-03-30T14:02:08.716Z,7.10
2018-03-30T14:04:44.699Z,7.83
2018-03-30T14:07:29.012Z,9.67
2018-03-30T14:10:01.122Z,8.90
2018-03-30T14:12:31.250Z,9.60
2018-03-30T14:14:58.891Z,8.90
2018-03-30T14:20:35.495Z,8.13
2018-03-30T14:23:04.031Z,7.97
2018-03-30T14:25:37.083Z,7.47
2018-03-30T14:28:05.484Z,6.80
2018-03-30T14:30:38.834Z,7.03
2018-03-30T14:33:06.430Z,7.07
2018-03-30T14:38:58.373Z,6.73
2018-03-30T14:41:26.435Z,6.83
2018-03-30T14:43:56.136Z,7.10
2018-03-30T14:46:39.903Z,6.50
2018-03-30T14:49:13.212Z,6.20
2018-03-30T14:51:43.593Z,5.23
2018-03-30T14:57:10.823Z,6.80
2018-03-30T14:59:40.568Z,5.17
2018-03-30T15:02:16.820Z,4.77
2018-03-30T15:04:56.879Z,4.57
2018-03-30T15:07:38.890Z,4.50
2018-03-30T15:10:13.741Z,4.47
2018-03-30T15:12:52.656Z,3.90
2018-03-30T15:15:27.784Z,4.10
2018-03-30T15:18:01.976Z,4.63
2018-03-30T15:23:39.285Z,4.17
2018-03-30T15:26:14.743Z,3.53
2018-03-30T15:28:44.791Z,4.83
2018-03-30T15:31:15.044Z,4.80
2018-03-30T15:33:46.244Z,3.73
2018-03-30T15:36:20.406Z,3.37
2018-03-30T15:38:47.985Z,3.80
2018-03-30T15:41:15.635Z,3.50
2018-03-30T15:43:46.400Z,4.50
2018-03-30T15:46:34.678Z,4.30
2018-03-30T15:49:02.263Z,5.40
2018-03-30T15:51:38.695Z,5.20
2018-03-30T15:54:06.560Z,3.30
2018-03-30T15:56:34.933Z,5.53
2018-03-30T15:59:02.507Z,4.20
2018-03-30T16:01:30.105Z,3.67
2018-03-30T16:03:58.442Z,3.87
2018-03-30T16:06:26.075Z,3.30
2018-03-30T16:08:54.413Z,5.47
2018-03-30T16:11:38.953Z,6.23
2018-03-30T16:14:06.576Z,4.57
2018-03-30T16:16:34.146Z,5.47
2018-03-30T16:19:01.377Z,4.83
2018-03-30T16:21:28.509Z,5.30
2018-03-30T16:23:55.615Z,5.27
2018-03-30T16:26:22.710Z,5.27
2018-03-30T16:28:49.798Z,5.13
2018-03-30T16:31:17.879Z,5.07
2018-03-30T16:33:45.006Z,4.77
2018-03-30T16:36:12.152Z,5.10
2018-03-30T16:38:40.096Z,5.53
2018-03-30T16:41:07.189Z,6.57
2018-03-30T16:43:34.356Z,5.83
2018-03-30T16:46:01.509Z,6.80
2018-03-30T16:48:28.959Z,5.97
2018-03-30T16:50:56.061Z,6.07
2018-03-30T16:53:23.226Z,8.77
2018-03-30T16:55:50.792Z,6.80
2018-03-30T16:58:18.024Z,8.25
2018-03-30T17:00:45.552Z,6.30
2018-03-30T17:03:12.838Z,6.13
2018-03-30T17:05:40.746Z,5.90
2018-03-30T17:08:07.862Z,6.40
2018-03-30T17:10:35.859Z,5.53
2018-03-30T17:13:03.720Z,7.27
2018-03-30T17:15:30.828Z,7.23
2018-03-30T17:17:57.943Z,7.43
2018-03-30T17:20:25.806Z,8.23
2018-03-30T17:22:53.077Z,9.23
2018-03-30T17:25:21.123Z,15.33
2018-03-30T17:27:48.246Z,7.90
2018-03-30T17:30:16.930Z,6.83
2018-03-30T17:32:44.827Z,8.53
2018-03-30T17:35:13.110Z,6.63
2018-03-30T17:37:40.959Z,6.63
2018-03-30T17:40:08.057Z,7.23
2018-03-30T17:42:35.970Z,6.40
2018-03-30T17:45:03.118Z,7.10
2018-03-30T17:47:30.212Z,8.33
2018-03-30T17:49:58.189Z,6.83
2018-03-30T17:52:25.276Z,7.37
2018-03-30T17:54:52.462Z,6.97
2018-03-30T17:57:20.331Z,7.10
2018-03-30T17:59:48.478Z,8.03
2018-03-30T18:02:15.600Z,10.33
2018-03-30T18:04:42.822Z,8.90
2018-03-30T18:07:10.248Z,9.73
2018-03-30T18:09:38.083Z,9.23
2018-03-30T18:12:05.981Z,8.87
2018-03-30T18:14:34.084Z,9.97
2018-03-30T18:17:01.198Z,8.10
2018-03-30T18:19:28.301Z,8.13
2018-03-30T18:21:55.399Z,8.10
2018-03-30T18:24:22.730Z,7.37
2018-03-30T18:26:49.806Z,7.80
2018-03-30T18:29:16.902Z,8.33
2018-03-30T18:31:46.430Z,7.43
2018-03-30T18:34:13.573Z,8.47
2018-03-30T19:58:37.427Z,7.20
2018-03-30T20:01:04.606Z,8.40
2018-03-30T20:03:32.474Z,6.43
2018-03-30T20:05:59.544Z,7.40
2018-03-30T20:08:27.411Z,7.17
2018-03-30T20:10:54.503Z,7.07
2018-03-30T20:13:21.582Z,6.27
2018-03-30T20:15:49.147Z,8.10
2018-03-30T20:18:16.252Z,7.63
2018-03-30T20:20:43.314Z,7.37
2018-03-30T20:23:11.237Z,7.17
2018-03-30T20:25:39.480Z,9.17
2018-03-30T20:28:06.565Z,8.60
2018-03-30T20:30:34.438Z,8.00
2018-03-30T20:33:02.401Z,8.70
2018-03-30T20:35:30.280Z,8.47
2018-03-30T20:37:57.727Z,11.27
2018-03-30T20:40:25.655Z,16.57
2018-03-30T20:42:53.521Z,13.83
2018-03-30T20:45:20.614Z,10.33
2018-03-30T20:47:47.713Z,11.57
2018-03-30T20:50:14.783Z,13.93
2018-03-30T20:52:41.879Z,10.73
2018-03-30T20:55:09.770Z,10.33
2018-03-30T20:57:36.924Z,10.13
2018-03-30T21:00:04.029Z,9.83
2018-03-30T21:02:31.128Z,10.00
2018-03-30T21:04:58.203Z,12.67
2018-03-30T21:07:26.056Z,12.57
2018-03-30T21:09:53.153Z,10.07
2018-03-30T21:12:20.250Z,10.83
2018-03-30T21:14:47.387Z,10.50
2018-03-30T21:17:14.478Z,11.00
2018-03-30T21:19:41.627Z,9.53
2018-03-30T21:22:08.704Z,10.07
2018-03-30T21:24:35.798Z,11.20
2018-03-30T21:27:03.690Z,11.57
2018-03-30T21:29:30.801Z,10.43
2018-03-30T21:31:57.901Z,11.33
2018-03-30T21:34:25.766Z,12.07
2018-03-30T21:36:52.844Z,9.90
2018-03-30T21:39:20.727Z,10.77
2018-03-30T21:41:48.581Z,11.03
2018-03-30T21:44:15.648Z,10.43
2018-03-30T21:46:42.762Z,12.27
2018-03-30T21:49:09.880Z,10.47
2018-03-30T21:51:37.772Z,12.50
2018-03-30T21:54:05.623Z,13.77
2018-03-30T21:56:32.721Z,10.90
2018-03-30T21:58:59.814Z,10.77
2018-03-30T22:01:26.915Z,11.37
2018-03-30T22:03:54.014Z,9.43
2018-03-30T22:06:21.784Z,10.53
2018-03-30T22:08:48.880Z,11.87
2018-03-30T22:11:16.014Z,8.33
2018-03-30T22:13:43.156Z,8.67
2018-03-30T22:16:11.020Z,9.03
2018-03-30T22:18:40.412Z,9.23
2018-03-30T22:21:07.504Z,10.43
2018-03-30T22:23:35.359Z,8.23
2018-03-30T22:26:02.444Z,9.67
2018-03-30T22:28:30.315Z,8.80
2018-03-30T22:30:58.247Z,9.30
2018-03-30T22:33:26.436Z,9.17
2018-03-30T22:35:53.529Z,9.27
2018-03-30T22:38:21.161Z,9.97
2018-03-30T22:40:48.463Z,10.30
2018-03-30T22:43:15.935Z,8.27
2018-03-30T22:45:44.423Z,10.10
2018-03-30T22:48:11.883Z,8.50
2018-03-30T22:50:40.662Z,8.30
2018-03-30T22:53:07.813Z,10.80
2018-03-30T22:55:35.356Z,8.80
2018-03-30T22:58:02.719Z,8.47
2018-03-30T23:00:29.932Z,9.43
2018-03-30T23:02:57.949Z,8.27
2018-03-30T23:05:25.055Z,10.10
2018-03-30T23:07:52.167Z,9.20
2018-03-30T23:10:20.241Z,9.23
2018-03-30T23:12:48.507Z,9.33
2018-03-30T23:15:15.908Z,7.93
2018-03-30T23:17:43.558Z,10.00
2018-03-30T23:20:10.829Z,8.87
2018-03-30T23:22:38.041Z,8.17
2018-03-30T23:25:06.267Z,8.40
2018-03-30T23:27:33.412Z,8.27
2018-03-30T23:30:00.864Z,7.67
2018-03-30T23:32:28.575Z,7.20
2018-03-30T23:34:58.032Z,7.57
2018-03-30T23:37:25.553Z,7.30
2018-03-30T23:39:53.285Z,7.17
2018-03-30T23:42:21.301Z,8.47
2018-03-30T23:44:51.315Z,7.97
2018-03-30T23:47:19.084Z,7.03
2018-03-30T23:49:46.893Z,6.77
2018-03-30T23:52:15.524Z,8.90
2018-03-30T23:54:43.581Z,8.93
2018-03-30T23:57:12.344Z,10.37
2018-03-30T23:59:41.147Z,9.57
